Time;durP1;ratioP1;P1;durP2;ratioP2;P2;SDS_P1;SDS_P2;PMS_P1;PMS_P2;Temp;Humidity;BMP_temperature;BMP_pressure;BME280_temperature;BME280_humidity;BME280_pressure;Samples;Min_cycle;Max_cycle;Signal;HPM_P1;HPM_P2
2022/03/13 00:01:01;;;;;;;14.75;5.75;;;;;;;-0.13;79.07;101143.34;1754275;82;20995;-60
2022/03/13 00:03:34;;;;;;;13.45;6.20;;;;;;;-0.16;79.11;101139.52;1754166;82;21110;-61
2022/03/13 00:06:04;;;;;;;13.00;6.05;;;;;;;-0.14;79.12;101144.31;1753944;82;21494;-60
2022/03/13 00:08:33;;;;;;;11.95;5.60;;;;;;;-0.17;79.12;101140.00;1754103;82;21058;-60
2022/03/13 00:11:17;;;;;;;12.90;6.12;;;;;;;-0.20;79.19;101139.36;1754254;82;21063;-61
2022/03/13 00:13:45;;;;;;;;;;;;;;;-0.21;79.25;101141.20;1755873;80;21089;-61
2022/03/13 00:16:15;;;;;;;12.37;5.75;;;;;;;-0.21;79.28;101140.34;1689567;85;20187;-61
2022/03/13 00:18:49;;;;;;;12.70;6.08;;;;;;;-0.24;79.27;101145.95;1689646;85;21033;-61
2022/03/13 00:21:20;;;;;;;12.50;5.92;;;;;;;-0.25;79.33;101146.42;1689497;85;21003;-61
2022/03/13 00:23:49;;;;;;;14.18;5.58;;;;;;;-0.24;79.35;101137.86;1689632;83;22280;-61
2022/03/13 00:26:19;;;;;;;12.47;6.25;;;;;;;-0.23;79.37;101135.06;1691752;85;21054;-61
2022/03/13 00:28:49;;;;;;;14.23;6.15;;;;;;;-0.26;79.49;101136.62;1691938;85;21046;-60
2022/03/13 00:31:18;;;;;;;11.30;5.67;;;;;;;-0.28;79.54;101137.71;1691158;85;21140;-61
2022/03/13 00:33:47;;;;;;;14.58;6.22;;;;;;;-0.27;79.59;101134.91;1704576;82;21011;-61
2022/03/13 00:36:16;;;;;;;17.62;6.35;;;;;;;-0.25;79.63;101136.14;1753950;80;21516;-60
2022/03/13 00:38:45;;;;;;;14.90;5.92;;;;;;;-0.24;79.57;101141.42;1754179;82;21459;-62
2022/03/13 00:41:14;;;;;;;15.88;6.33;;;;;;;-0.24;79.51;101145.45;1754093;80;21062;-61
2022/03/13 00:43:42;;;;;;;14.18;6.35;;;;;;;-0.23;79.48;101137.75;1753897;82;21074;-61
2022/03/13 00:46:13;;;;;;;16.15;6.17;;;;;;;-0.22;79.54;101144.00;1754044;81;21036;-60
2022/03/13 00:48:42;;;;;;;12.55;6.05;;;;;;;-0.21;79.55;101144.38;1754042;82;21043;-61
2022/03/13 00:51:12;;;;;;;12.80;6.20;;;;;;;-0.18;79.55;101146.84;1753915;82;21090;-61
2022/03/13 00:53:42;;;;;;;13.22;6.60;;;;;;;-0.15;79.48;101147.97;1753916;82;21082;-61
2022/03/13 00:56:11;;;;;;;15.70;5.87;;;;;;;-0.14;79.44;101149.69;1725041;82;21070;-62
2022/03/13 00:58:42;;;;;;;14.93;6.47;;;;;;;-0.16;79.39;101151.64;1661580;85;21551;-61
2022/03/13 01:01:12;;;;;;;14.98;6.72;;;;;;;-0.19;79.38;101153.20;1661668;86;21078;-61
2022/03/13 01:03:47;;;;;;;14.07;6.53;;;;;;;-0.20;79.43;101150.14;1658504;85;21050;-61
2022/03/13 01:06:17;;;;;;;14.30;6.47;;;;;;;-0.21;79.44;101153.31;1656739;86;21011;-60
2022/03/13 01:08:50;;;;;;;17.27;6.97;;;;;;;-0.22;79.40;101148.04;1656722;86;21524;-61
2022/03/13 01:11:20;;;;;;;14.78;6.05;;;;;;;-0.23;79.43;101149.02;1656575;86;21137;-61
2022/03/13 01:13:49;;;;;;;14.95;6.78;;;;;;;-0.24;79.44;101158.06;1656575;86;21074;-60
2022/03/13 01:16:27;;;;;;;14.35;5.75;;;;;;;-0.23;79.45;101158.44;1678647;82;21023;-60
2022/03/13 01:18:58;;;;;;;14.28;6.30;;;;;;;-0.21;79.47;101160.53;1738103;82;21133;-61
2022/03/13 01:21:28;;;;;;;13.62;6.05;;;;;;;-0.20;79.45;101156.87;1738496;82;21040;-61
2022/03/13 01:24:02;;;;;;;11.95;5.87;;;;;;;-0.21;79.46;101153.80;1738371;82;21961;-61
2022/03/13 01:26:36;;;;;;;13.90;6.08;;;;;;;-0.18;79.48;101158.48;1684184;85;21046;-62
2022/03/13 01:29:09;;;;;;;15.10;6.30;;;;;;;-0.19;79.45;101158.59;1684195;85;21027;-61
2022/03/13 01:31:40;;;;;;;16.27;6.45;;;;;;;-0.21;79.54;101157.84;1683989;85;21517;-61
2022/03/13 01:34:12;;;;;;;15.00;6.17;;;;;;;-0.21;79.55;101157.84;1683811;85;21007;-61
2022/03/13 01:36:40;;;;;;;13.68;6.50;;;;;;;-0.24;79.54;101165.66;1684323;85;21011;-61
2022/03/13 01:39:11;;;;;;;13.88;6.03;;;;;;;-0.22;79.57;101165.06;1684208;85;21136;-60
2022/03/13 01:41:40;;;;;;;15.10;6.65;;;;;;;-0.23;79.56;101169.20;1684436;85;21157;-60
2022/03/13 01:44:10;;;;;;;13.43;6.20;;;;;;;-0.23;79.56;101166.52;1699581;82;21039;-60
2022/03/13 01:46:41;;;;;;;16.55;6.87;;;;;;;-0.24;79.56;101171.53;1684178;85;21119;-61
2022/03/13 01:49:10;;;;;;;14.23;6.10;;;;;;;-0.24;79.52;101175.08;1684072;85;21038;-61
2022/03/13 01:51:40;;;;;;;15.70;6.75;;;;;;;-0.23;79.56;101171.91;1684173;85;21537;-61
2022/03/13 01:54:12;;;;;;;14.93;6.15;;;;;;;-0.23;79.59;101175.94;1684547;85;21034;-60
2022/03/13 01:56:41;;;;;;;16.82;6.95;;;;;;;-0.21;79.60;101171.30;1684218;84;21181;-60
2022/03/13 01:59:11;;;;;;;14.05;6.90;;;;;;;-0.19;79.57;101174.75;1684667;84;21030;-61
2022/03/13 02:01:40;;;;;;;11.88;6.00;;;;;;;-0.17;79.53;101175.50;1684014;85;21086;-60
2022/03/13 02:04:12;;;;;;;12.73;6.67;;;;;;;-0.17;79.42;101173.67;1685023;85;21070;-60
2022/03/13 02:06:42;;;;;;;12.95;6.72;;;;;;;-0.16;79.38;101178.57;1686506;85;21042;-60
2022/03/13 02:09:12;;;;;;;13.78;6.83;;;;;;;-0.17;79.35;101175.50;1686519;85;21142;-61
2022/03/13 02:11:42;;;;;;;13.83;6.47;;;;;;;-0.17;79.35;101184.92;1668093;85;21450;-61
2022/03/13 02:14:13;;;;;;;17.32;7.17;;;;;;;-0.18;79.39;101182.72;1686572;84;21483;-61
2022/03/13 02:16:42;;;;;;;14.38;6.33;;;;;;;-0.19;79.34;101185.03;1686376;85;21070;-61
2022/03/13 02:19:11;;;;;;;13.13;6.47;;;;;;;-0.20;79.39;101184.66;1686376;85;21455;-61
2022/03/13 02:21:48;;;;;;;14.28;6.30;;;;;;;-0.21;79.40;101190.16;1606415;89;21514;-61
2022/03/13 02:24:16;;;;;;;14.98;7.03;;;;;;;-0.22;79.48;101187.95;1606013;89;21030;-61
2022/03/13 02:26:58;;;;;;;13.93;6.00;;;;;;;-0.21;79.49;101193.71;1605993;89;21030;-62
2022/03/13 02:29:27;;;;;;;16.62;7.65;;;;;;;-0.18;79.52;101195.33;1622820;86;21158;-62
2022/03/13 02:31:58;;;;;;;15.03;6.55;;;;;;;-0.18;79.51;101200.23;1658838;86;21462;-61
2022/03/13 02:34:27;;;;;;;14.15;6.53;;;;;;;-0.16;79.44;101200.11;1658684;86;21075;-62
2022/03/13 02:37:01;;;;;;;14.80;6.95;;;;;;;-0.16;79.41;101197.42;1658655;86;21094;-61
2022/03/13 02:39:33;;;;;;;12.47;6.47;;;;;;;-0.16;79.37;101204.16;1658603;85;21098;-61
2022/03/13 02:42:04;;;;;;;14.05;6.75;;;;;;;-0.19;79.28;101207.92;1658845;86;21075;-62
2022/03/13 02:44:34;;;;;;;15.58;6.25;;;;;;;-0.18;79.25;101206.09;1658899;86;21053;-60
2022/03/13 02:47:05;;;;;;;14.58;5.75;;;;;;;-0.16;79.22;101209.55;1723681;82;21067;-60
2022/03/13 02:49:35;;;;;;;12.25;6.42;;;;;;;-0.15;79.17;101212.61;1740113;82;21047;-60
2022/03/13 02:52:06;;;;;;;13.55;6.33;;;;;;;-0.17;79.11;101212.72;1740509;81;21190;-61
2022/03/13 02:54:34;;;;;;;14.93;6.20;;;;;;;-0.17;79.07;101213.20;1740574;82;21043;-62
2022/03/13 02:57:04;;;;;;;15.20;5.83;;;;;;;-0.16;79.05;101214.93;1740510;82;21079;-61
2022/03/13 02:59:32;;;;;;;14.78;6.30;;;;;;;-0.16;78.98;101222.52;1740271;82;21031;-60
2022/03/13 03:02:02;;;;;;;12.28;5.70;;;;;;;-0.14;78.94;101221.07;1740535;82;21570;-61
2022/03/13 03:04:32;;;;;;;12.90;6.25;;;;;;;-0.14;78.92;101221.07;1738629;81;21040;-60
2022/03/13 03:07:04;;;;;;;12.45;6.00;;;;;;;-0.15;78.83;101230.13;1738171;82;21031;-62
2022/03/13 03:09:33;;;;;;;13.35;6.45;;;;;;;-0.18;78.84;101236.58;1738287;82;21083;-61
2022/03/13 03:12:04;;;;;;;10.60;5.85;;;;;;;-0.18;78.90;101234.38;1738318;82;21044;-61
2022/03/13 03:14:33;;;;;;;13.80;6.37;;;;;;;-0.15;78.85;101239.55;1738122;82;21043;-61
2022/03/13 03:17:03;;;;;;;14.38;6.22;;;;;;;-0.16;78.75;101240.52;1738141;81;21024;-60
2022/03/13 03:19:32;;;;;;;11.65;5.90;;;;;;;-0.18;78.71;101241.97;1738295;82;21087;-61
2022/03/13 03:22:01;;;;;;;12.37;6.00;;;;;;;-0.18;78.74;101241.11;1738126;82;21082;-61
2022/03/13 03:24:31;;;;;;;14.38;5.90;;;;;;;-0.17;78.72;101242.34;1738102;82;21542;-61
2022/03/13 03:27:00;;;;;;;12.20;5.70;;;;;;;-0.16;78.72;101249.94;1738273;82;21051;-62
2022/03/13 03:29:30;;;;;;;11.85;5.53;;;;;;;-0.16;78.69;101247.25;1738160;82;21510;-61
2022/03/13 03:32:02;;;;;;;12.53;5.78;;;;;;;-0.20;78.60;101245.26;1738351;82;21087;-60
2022/03/13 03:34:33;;;;;;;12.98;5.62;;;;;;;-0.24;78.59;101246.44;1738148;82;21064;-60
2022/03/13 03:37:03;;;;;;;9.08;4.85;;;;;;;-0.24;78.67;101241.06;1738075;82;21067;-62
2022/03/13 03:39:34;;;;;;;11.57;5.80;;;;;;;-0.24;78.67;101266.64;1738374;82;21000;-60
2022/03/13 03:42:07;;;;;;;12.95;5.85;;;;;;;-0.22;78.68;101258.45;1738047;82;21095;-60
2022/03/13 03:44:37;;;;;;;11.20;5.53;;;;;;;-0.23;78.65;101260.77;1738141;82;21509;-60
2022/03/13 03:47:07;;;;;;;14.10;6.33;;;;;;;-0.21;78.64;101264.22;1738331;82;21094;-60
2022/03/13 03:49:37;;;;;;;11.63;5.60;;;;;;;-0.21;78.58;101257.00;1738200;81;21071;-61
2022/03/13 03:52:08;;;;;;;13.15;5.97;;;;;;;-0.22;78.48;101262.49;1738321;82;21027;-61
2022/03/13 03:54:37;;;;;;;15.68;6.62;;;;;;;-0.21;78.43;101257.48;1738316;81;21075;-62
2022/03/13 03:57:07;;;;;;;15.25;6.53;;;;;;;-0.25;78.41;101265.40;1738136;82;21451;-61
2022/03/13 03:59:36;;;;;;;14.47;5.92;;;;;;;-0.21;78.40;101261.52;1738345;82;21031;-61
2022/03/13 04:02:05;;;;;;;11.25;5.72;;;;;;;-0.24;78.33;101261.25;1738411;82;21063;-61
2022/03/13 04:04:36;;;;;;;14.07;6.00;;;;;;;-0.22;78.38;101263.84;1738079;82;21059;-60
2022/03/13 04:07:06;;;;;;;11.95;5.97;;;;;;;-0.21;78.32;101269.12;1738379;82;21051;-61
2022/03/13 04:09:36;;;;;;;14.05;6.25;;;;;;;-0.22;78.25;101271.92;1738376;81;21467;-62
2022/03/13 04:12:08;;;;;;;12.63;5.90;;;;;;;-0.25;78.17;101268.95;1738259;82;21091;-60
2022/03/13 04:14:37;;;;;;;12.95;6.20;;;;;;;-0.26;78.16;101278.00;1738144;82;21027;-61
2022/03/13 04:17:06;;;;;;;14.98;5.72;;;;;;;-0.25;78.19;101274.34;1738305;82;21024;-61
2022/03/13 04:19:35;;;;;;;12.60;6.05;;;;;;;-0.24;78.16;101277.89;1738310;82;21154;-61
2022/03/13 04:22:04;;;;;;;14.80;5.65;;;;;;;-0.27;78.16;101282.15;1738085;81;21031;-62
2022/03/13 04:24:33;;;;;;;13.55;6.70;;;;;;;-0.28;78.15;101279.08;1738251;82;21051;-60
2022/03/13 04:27:04;;;;;;;14.05;6.35;;;;;;;-0.28;78.20;101276.38;1738297;82;21471;-61
2022/03/13 04:29:34;;;;;;;14.05;6.33;;;;;;;-0.28;78.17;101281.28;1737924;82;21919;-61
2022/03/13 04:32:05;;;;;;;15.48;6.70;;;;;;;-0.28;78.15;101283.98;1738082;82;21073;-60
2022/03/13 04:34:35;;;;;;;14.30;6.90;;;;;;;-0.26;78.18;101289.26;1738295;82;21004;-61
2022/03/13 04:37:04;;;;;;;15.75;6.58;;;;;;;-0.27;78.16;101292.92;1737798;82;21039;-61
2022/03/13 04:39:35;;;;;;;14.15;6.30;;;;;;;-0.27;78.21;101295.61;1737986;82;21067;-61
2022/03/13 04:42:06;;;;;;;18.37;7.20;;;;;;;-0.29;78.32;101305.14;1737980;82;21047;-61
2022/03/13 04:44:34;;;;;;;15.10;6.17;;;;;;;-0.33;78.31;101307.19;1737995;82;21055;-61
2022/03/13 04:47:05;;;;;;;16.27;6.72;;;;;;;-0.32;78.35;101311.60;1738294;82;21490;-61
2022/03/13 04:49:34;;;;;;;15.95;6.78;;;;;;;-0.30;78.45;101316.02;1738075;82;21067;-62
2022/03/13 04:52:05;;;;;;;13.85;6.30;;;;;;;-0.29;78.43;101316.40;1737972;82;21090;-61
2022/03/13 04:54:34;;;;;;;15.58;6.62;;;;;;;-0.33;78.44;101322.48;1738347;82;21070;-61
2022/03/13 04:57:03;;;;;;;19.10;7.45;;;;;;;-0.34;78.51;101327.48;1737967;81;21063;-61
2022/03/13 04:59:34;;;;;;;13.90;6.62;;;;;;;-0.35;78.53;101325.77;1738197;82;21052;-61
2022/03/13 05:02:04;;;;;;;14.63;6.20;;;;;;;-0.34;78.57;101331.05;1738267;82;21008;-60
2022/03/13 05:04:34;;;;;;;13.58;6.62;;;;;;;-0.33;78.59;101328.73;1738121;82;21130;-61
2022/03/13 05:07:06;;;;;;;10.72;5.03;;;;;;;-0.29;78.52;101336.59;1718073;82;21080;-61
2022/03/13 05:09:35;;;;;;;15.20;6.62;;;;;;;-0.28;78.43;101343.70;1737950;82;21039;-62
2022/03/13 05:12:10;;;;;;;16.40;6.03;;;;;;;-0.29;78.29;101340.63;1737916;82;21447;-61
2022/03/13 05:14:40;;;;;;;12.58;6.08;;;;;;;-0.27;78.25;101345.43;1738052;82;21503;-62
2022/03/13 05:17:10;;;;;;;17.60;6.12;;;;;;;-0.27;78.00;101342.73;1738079;82;21052;-62
2022/03/13 05:19:38;;;;;;;15.68;6.22;;;;;;;-0.26;77.92;101357.44;1738172;81;21067;-61
2022/03/13 05:22:08;;;;;;;12.35;5.33;;;;;;;-0.25;77.75;101363.20;1738071;82;21111;-61
2022/03/13 05:24:37;;;;;;;14.03;6.00;;;;;;;-0.23;77.71;101355.89;1738075;82;21111;-61
2022/03/13 05:27:05;;;;;;;15.03;5.95;;;;;;;-0.23;77.65;101359.06;1738510;82;21101;-60
2022/03/13 05:29:34;;;;;;;14.03;5.78;;;;;;;-0.23;77.59;101365.80;1738243;81;21035;-62
2022/03/13 05:32:04;;;;;;;12.13;5.65;;;;;;;-0.21;77.57;101373.28;1738275;82;21519;-60
2022/03/13 05:34:34;;;;;;;12.20;5.95;;;;;;;-0.19;77.41;101379.43;1738072;82;21031;-60
2022/03/13 05:37:05;;;;;;;14.23;5.60;;;;;;;-0.20;77.35;101379.91;1738290;82;21110;-61
2022/03/13 05:39:35;;;;;;;12.85;5.58;;;;;;;-0.21;77.37;101385.41;1738242;82;21035;-60
2022/03/13 05:42:06;;;;;;;10.08;5.30;;;;;;;-0.18;77.28;101385.20;1738096;81;21000;-61
2022/03/13 05:44:37;;;;;;;14.28;5.62;;;;;;;-0.17;77.10;101385.58;1684201;85;21047;-60
2022/03/13 05:47:06;;;;;;;14.33;5.53;;;;;;;-0.18;77.03;101386.06;1684070;85;21431;-62
2022/03/13 05:49:36;;;;;;;8.68;4.58;;;;;;;-0.12;76.97;101395.55;1684140;85;21055;-60
2022/03/13 05:52:07;;;;;;;12.20;5.25;;;;;;;-0.10;76.89;101400.34;1684394;84;21019;-61
2022/03/13 05:54:35;;;;;;;10.65;5.33;;;;;;;-0.10;76.63;101400.34;1684157;85;21067;-61
2022/03/13 05:57:04;;;;;;;11.43;6.12;;;;;;;-0.09;76.46;101408.81;1684312;85;21072;-61
2022/03/13 05:59:36;;;;;;;10.10;5.53;;;;;;;-0.10;76.25;101412.47;1684343;85;21062;-61
2022/03/13 06:02:06;;;;;;;11.53;5.00;;;;;;;-0.11;76.20;101414.30;1695583;82;21071;-60
2022/03/13 06:04:37;;;;;;;10.55;5.50;;;;;;;-0.08;76.08;101422.66;1743566;82;21533;-60
2022/03/13 06:07:13;;;;;;;13.20;5.50;;;;;;;-0.08;75.99;101422.17;1753963;82;21568;-61
2022/03/13 06:09:44;;;;;;;13.10;5.37;;;;;;;-0.06;75.95;101422.94;1661633;85;21183;-60
2022/03/13 06:12:15;;;;;;;13.22;5.03;;;;;;;-0.02;75.78;101431.67;1661609;85;21125;-61
2022/03/13 06:14:44;;;;;;;8.48;4.75;;;;;;;-0.01;75.27;101428.00;1661619;86;21042;-61
2022/03/13 06:17:14;;;;;;;12.03;5.05;;;;;;;-0.03;75.06;101440.72;1661728;86;21046;-60
2022/03/13 06:19:44;;;;;;;10.80;5.10;;;;;;;-0.07;75.02;101433.33;1661927;86;21050;-63
2022/03/13 06:22:14;;;;;;;9.18;4.97;;;;;;;-0.06;74.84;101443.62;1663820;86;21058;-61
2022/03/13 06:24:43;;;;;;;9.53;4.78;;;;;;;-0.06;74.79;101446.31;1663912;86;21040;-61
2022/03/13 06:27:16;;;;;;;9.68;4.95;;;;;;;-0.05;74.80;101453.42;1683327;82;21062;-62
2022/03/13 06:29:45;;;;;;;12.03;5.37;;;;;;;-0.04;74.75;101451.98;1754372;82;21066;-61
2022/03/13 06:32:13;;;;;;;11.20;4.87;;;;;;;0.01;74.71;101464.30;1754071;82;21537;-62
2022/03/13 06:34:43;;;;;;;11.12;5.30;;;;;;;0.01;74.47;101470.55;1754161;82;21038;-62
2022/03/13 06:37:12;;;;;;;11.83;5.00;;;;;;;-0.01;74.15;101463.03;1754170;82;21058;-61
2022/03/13 06:39:42;;;;;;;8.98;4.70;;;;;;;-0.04;73.87;101480.75;1754194;82;21046;-61
2022/03/13 06:42:11;;;;;;;9.38;4.65;;;;;;;-0.09;73.81;101472.98;1754281;82;21066;-61
2022/03/13 06:44:40;;;;;;;10.58;4.95;;;;;;;-0.08;73.80;101479.23;1754254;82;21268;-63
2022/03/13 06:47:10;;;;;;;13.50;5.00;;;;;;;-0.09;73.75;101481.55;1754076;82;21007;-61
2022/03/13 06:49:40;;;;;;;12.90;5.60;;;;;;;-0.10;73.51;101484.72;1754157;82;21090;-61
2022/03/13 06:52:10;;;;;;;10.23;5.10;;;;;;;-0.10;73.18;101482.50;1753984;80;21031;-60
2022/03/13 06:54:38;;;;;;;9.20;4.17;;;;;;;-0.10;73.09;101487.89;1754159;82;21046;-60
2022/03/13 06:57:07;;;;;;;8.80;4.40;;;;;;;-0.10;72.70;101493.28;1754283;82;21034;-61
2022/03/13 06:59:37;;;;;;;9.95;4.78;;;;;;;-0.12;72.70;101493.87;1754255;82;21047;-61
2022/03/13 07:02:07;;;;;;;9.73;5.08;;;;;;;-0.12;72.71;101493.87;1754273;82;21030;-61
2022/03/13 07:04:35;;;;;;;8.58;4.65;;;;;;;-0.12;72.61;101496.08;1754094;82;21486;-61
2022/03/13 07:07:06;;;;;;;12.47;5.00;;;;;;;-0.11;72.60;101499.64;1754263;82;21038;-60
2022/03/13 07:09:36;;;;;;;10.38;5.47;;;;;;;-0.10;72.37;101498.67;1661741;85;21050;-59
2022/03/13 07:12:11;;;;;;;9.35;4.22;;;;;;;-0.09;72.15;101501.74;1661675;86;21123;-60
2022/03/13 07:14:45;;;;;;;10.53;5.12;;;;;;;-0.10;71.95;101506.75;1661770;86;21091;-62
2022/03/13 07:17:11;;;;;;;10.85;4.90;;;;;;;-0.10;71.77;101516.18;1661469;86;21158;-62
2022/03/13 07:19:43;;;;;;;10.20;4.90;;;;;;;-0.13;71.83;101517.25;1661855;86;21187;-61
2022/03/13 07:22:12;;;;;;;12.58;5.67;;;;;;;-0.17;71.79;101526.50;1661937;86;21091;-61
2022/03/13 07:24:43;;;;;;;10.08;5.10;;;;;;;-0.19;71.90;101535.64;1661778;86;21095;-61
2022/03/13 07:27:12;;;;;;;10.00;4.85;;;;;;;-0.22;72.00;101521.89;1686281;82;21027;-61
2022/03/13 07:29:40;;;;;;;9.55;4.97;;;;;;;-0.19;72.13;101532.95;1754223;82;21071;-61
2022/03/13 07:32:09;;;;;;;8.05;4.50;;;;;;;-0.17;72.11;101531.02;1754222;82;21107;-62
2022/03/13 07:34:39;;;;;;;10.93;5.12;;;;;;;-0.18;72.08;101530.64;1753945;82;21450;-62
2022/03/13 07:37:10;;;;;;;9.80;4.72;;;;;;;-0.20;72.17;101531.22;1753947;82;21426;-61
2022/03/13 07:39:39;;;;;;;11.03;5.37;;;;;;;-0.19;72.15;101538.34;1754079;82;21133;-61
2022/03/13 07:42:11;;;;;;;8.93;4.65;;;;;;;-0.18;72.30;101534.20;1753923;82;21269;-60
2022/03/13 07:44:40;;;;;;;9.63;4.95;;;;;;;-0.16;72.27;101539.48;1753902;82;21066;-60
2022/03/13 07:47:09;;;;;;;9.95;5.20;;;;;;;-0.13;72.24;101535.23;1753941;82;21038;-62
2022/03/13 07:49:40;;;;;;;12.20;5.80;;;;;;;-0.13;72.38;101536.58;1753801;82;21027;-61
2022/03/13 07:52:09;;;;;;;13.78;5.62;;;;;;;-0.12;72.65;101547.26;1754151;82;21110;-61
2022/03/13 07:54:39;;;;;;;14.58;5.75;;;;;;;-0.12;72.71;101537.83;1754239;82;21058;-63
2022/03/13 07:57:08;;;;;;;11.97;5.08;;;;;;;-0.12;72.90;101532.92;1754277;82;21043;-62
2022/03/13 07:59:37;;;;;;;11.80;5.72;;;;;;;-0.09;73.15;101547.54;1753862;80;21059;-62
2022/03/13 08:09:19;;;;;;;10.28;5.08;;;;;;;-0.01;73.89;101550.59;1829860;77;22593;-62
2022/03/13 08:11:48;;;;;;;9.70;5.00;;;;;;;-0.05;74.09;101555.80;1788442;80;21119;-61
2022/03/13 08:14:18;;;;;;;14.10;5.40;;;;;;;-0.05;74.04;101563.88;1788647;80;21597;-61
2022/03/13 08:16:47;;;;;;;11.65;4.97;;;;;;;-0.06;74.15;101565.71;1788801;80;21543;-61
2022/03/13 08:19:16;;;;;;;12.20;4.97;;;;;;;-0.05;74.33;101568.78;1788735;80;21583;-62
2022/03/13 08:21:46;;;;;;;10.78;4.75;;;;;;;-0.08;74.30;101566.78;1788580;80;21648;-61
2022/03/13 08:24:17;;;;;;;12.28;4.97;;;;;;;-0.11;74.48;101569.67;1788611;80;21111;-61
2022/03/13 08:26:46;;;;;;;12.53;5.20;;;;;;;-0.12;74.52;101571.98;1788595;80;21099;-60
2022/03/13 08:29:16;;;;;;;12.65;5.47;;;;;;;-0.14;74.44;101564.48;1788945;80;21130;-60
2022/03/13 08:31:44;;;;;;;11.68;5.10;;;;;;;-0.13;74.43;101566.22;1788419;80;21206;-61
2022/03/13 08:34:13;;;;;;;11.05;5.60;;;;;;;-0.11;74.53;101572.37;1788781;80;21103;-60
2022/03/13 08:36:46;;;;;;;15.08;5.45;;;;;;;-0.06;74.49;101573.80;1788864;80;21118;-60
2022/03/13 08:39:14;;;;;;;10.38;4.92;;;;;;;-0.03;74.38;101575.42;1788823;80;21186;-61
2022/03/13 08:41:43;;;;;;;11.45;5.33;;;;;;;0.01;74.35;101571.59;1788898;79;21158;-61
2022/03/13 08:44:14;;;;;;;13.60;4.87;;;;;;;0.04;74.37;101586.69;1788533;80;21111;-60
2022/03/13 08:46:44;;;;;;;12.25;5.58;;;;;;;0.06;74.29;101586.97;1788790;80;21605;-60
2022/03/13 08:49:14;;;;;;;10.08;4.80;;;;;;;0.05;74.15;101588.42;1788839;79;21170;-61
2022/03/13 08:51:45;;;;;;;11.05;5.12;;;;;;;0.04;74.37;101601.03;1788621;79;21535;-61
2022/03/13 08:54:16;;;;;;;14.95;5.58;;;;;;;0.01;74.50;101606.62;1788563;80;21139;-61
2022/03/13 08:56:50;;;;;;;12.58;5.30;;;;;;;0.02;74.38;101607.00;1788705;80;21142;-61
2022/03/13 08:59:20;;;;;;;9.95;4.95;;;;;;;0.06;74.35;101600.92;1788567;79;21134;-60
2022/03/13 09:01:51;;;;;;;10.70;4.78;;;;;;;0.07;74.21;101594.57;1788427;80;21135;-61
2022/03/13 09:04:20;;;;;;;13.48;5.53;;;;;;;0.10;74.05;101603.31;1788640;80;21138;-60
2022/03/13 09:06:49;;;;;;;8.95;5.00;;;;;;;0.08;73.99;101607.08;1788762;80;21150;-61
2022/03/13 09:09:19;;;;;;;13.05;6.72;;;;;;;0.10;74.16;101610.05;1776962;80;21135;-61
2022/03/13 09:11:51;;;;;;;10.82;5.80;;;;;;;0.09;74.14;101614.20;1731382;83;21649;-62
2022/03/13 09:14:20;;;;;;;12.75;5.42;;;;;;;0.07;74.20;101612.95;1731710;83;21598;-60
2022/03/13 09:16:49;;;;;;;13.00;5.25;;;;;;;0.08;74.20;101616.03;1655050;86;21298;-60
2022/03/13 09:19:18;;;;;;;10.85;5.20;;;;;;;0.11;74.10;101615.83;1731277;83;21131;-61
2022/03/13 09:21:47;;;;;;;12.23;5.53;;;;;;;0.12;74.19;101623.42;1654612;86;21174;-60
2022/03/13 09:24:16;;;;;;;12.25;5.67;;;;;;;0.13;73.97;101628.72;1731155;83;21183;-60
2022/03/13 09:26:46;;;;;;;10.55;5.47;;;;;;;0.15;74.00;101628.62;1731325;83;21174;-61
2022/03/13 09:29:15;;;;;;;9.30;5.30;;;;;;;0.17;74.10;101625.34;1739247;81;21147;-61
2022/03/13 09:31:44;;;;;;;11.25;5.30;;;;;;;0.22;74.07;101624.55;1774584;81;21520;-61
2022/03/13 09:34:14;;;;;;;10.40;5.15;;;;;;;0.26;73.77;101623.38;1774576;81;21112;-63
2022/03/13 09:36:43;;;;;;;9.10;4.75;;;;;;;0.30;73.62;101627.60;1774820;81;21151;-60
2022/03/13 09:39:11;;;;;;;10.23;5.03;;;;;;;0.29;73.21;101620.00;1774577;81;21544;-60
2022/03/13 09:41:40;;;;;;;11.10;5.45;;;;;;;0.33;73.08;101622.49;1774520;81;21151;-60
2022/03/13 09:44:09;;;;;;;11.18;5.05;;;;;;;0.35;73.21;101628.16;1774765;81;21167;-60
2022/03/13 09:46:38;;;;;;;12.55;5.15;;;;;;;0.40;73.20;101632.77;1774578;79;21159;-61
2022/03/13 09:49:07;;;;;;;12.20;5.35;;;;;;;0.41;73.34;101635.84;1774612;81;21131;-60
2022/03/13 09:51:37;;;;;;;11.05;4.22;;;;;;;0.43;73.21;101641.13;1774480;81;21147;-61
2022/03/13 09:54:06;;;;;;;10.43;5.00;;;;;;;0.44;72.96;101639.68;1774535;81;21108;-60
2022/03/13 09:56:35;;;;;;;13.78;5.37;;;;;;;0.46;72.89;101644.48;1774535;81;21155;-62
2022/03/13 09:59:05;;;;;;;12.00;5.15;;;;;;;0.48;72.80;101643.90;1774511;81;21115;-60
2022/03/13 10:01:36;;;;;;;10.30;5.00;;;;;;;0.51;72.67;101645.53;1774676;80;21112;-62
2022/03/13 10:04:06;;;;;;;10.75;5.10;;;;;;;0.54;72.59;101641.28;1774569;81;21539;-63
2022/03/13 10:07:10;;;;;;;10.43;5.35;;;;;;;0.57;72.64;101650.03;1774548;80;21119;-62
2022/03/13 10:09:43;;;;;;;10.70;5.12;;;;;;;0.62;72.73;101647.02;1774502;80;21218;-62
2022/03/13 10:12:16;;;;;;;11.93;4.90;;;;;;;0.67;72.41;101646.26;1774527;81;21115;-61
2022/03/13 10:15:05;;;;;;;13.10;5.42;;;;;;;0.67;71.97;101643.56;1774643;81;21155;-61
2022/03/13 10:17:36;;;;;;;10.13;5.12;;;;;;;0.72;71.94;101645.95;1774444;79;21130;-61
2022/03/13 10:20:26;;;;;;;12.93;4.75;;;;;;;0.76;71.85;101655.56;1774488;81;21123;-61
2022/03/13 10:23:04;;;;;;;9.98;4.83;;;;;;;0.79;71.48;101652.66;1774971;81;21155;-62
2022/03/13 10:25:39;;;;;;;9.63;4.78;;;;;;;0.79;71.35;101657.56;1774545;81;21116;-62
2022/03/13 10:28:18;;;;;;;9.27;3.53;;;;;;;0.78;70.94;101654.48;1774924;81;21590;-61
2022/03/13 10:31:05;;;;;;;9.33;4.97;;;;;;;0.79;70.48;101653.52;1774486;81;21107;-62
2022/03/13 10:33:47;;;;;;;12.05;5.15;;;;;;;0.81;70.18;101652.93;1773003;80;21093;-61
2022/03/13 10:36:24;;;;;;;8.95;5.33;;;;;;;0.80;69.86;101654.38;1774883;81;21107;-62
2022/03/13 10:38:53;;;;;;;12.07;5.25;;;;;;;0.79;69.47;101656.70;1774708;80;21166;-62
2022/03/13 10:41:24;;;;;;;11.38;5.25;;;;;;;0.78;69.46;101655.84;1763741;81;21158;-61
2022/03/13 10:43:58;;;;;;;12.33;5.00;;;;;;;0.77;69.70;101666.25;1761721;81;21119;-60
2022/03/13 10:46:29;;;;;;;11.60;4.67;;;;;;;0.78;69.75;101656.32;1774554;81;21141;-60
2022/03/13 10:48:59;;;;;;;10.88;4.60;;;;;;;0.74;69.31;101659.71;1774465;81;21087;-63
2022/03/13 10:51:36;;;;;;;9.10;4.40;;;;;;;0.72;69.49;101667.53;1774506;81;21111;-61
2022/03/13 10:54:05;;;;;;;8.90;4.73;;;;;;;0.73;69.65;101668.77;1774781;81;21111;-61
2022/03/13 10:56:36;;;;;;;10.50;4.80;;;;;;;0.73;69.86;101668.77;1774613;80;21150;-62
2022/03/13 10:59:17;;;;;;;10.03;4.87;;;;;;;0.74;69.78;101675.89;1774513;81;21116;-61
2022/03/13 11:02:09;;;;;;;12.53;4.62;;;;;;;0.75;69.82;101678.97;1774468;81;21151;-61
2022/03/13 11:04:55;;;;;;;8.95;4.40;;;;;;;0.73;69.60;101679.56;1774764;79;21499;-62
2022/03/13 11:07:28;;;;;;;9.23;5.05;;;;;;;0.72;69.42;101676.97;1774546;81;21625;-62
2022/03/13 11:09:57;;;;;;;8.65;4.30;;;;;;;0.73;69.35;101677.34;1785962;79;21135;-62
2022/03/13 11:12:26;;;;;;;12.88;4.87;;;;;;;0.74;69.70;101674.55;1788405;79;21103;-62
2022/03/13 11:15:00;;;;;;;10.20;4.87;;;;;;;0.78;69.78;101680.60;1788517;80;21138;-62
2022/03/13 11:17:33;;;;;;;11.15;4.53;;;;;;;0.80;69.82;101669.22;1788342;80;21221;-62
2022/03/13 11:20:04;;;;;;;10.78;4.58;;;;;;;0.85;69.75;101676.03;1788552;80;21107;-62
2022/03/13 11:22:35;;;;;;;12.15;4.62;;;;;;;0.88;69.68;101674.96;1788575;80;21075;-61
2022/03/13 11:25:06;;;;;;;8.53;4.22;;;;;;;0.92;69.36;101676.48;1788186;80;21111;-61
2022/03/13 11:27:38;;;;;;;11.57;4.97;;;;;;;0.95;68.97;101673.58;1788556;80;21111;-61
2022/03/13 11:30:09;;;;;;;9.83;3.98;;;;;;;0.98;68.61;101677.89;1788524;80;21601;-62
2022/03/13 11:32:46;;;;;;;8.95;4.42;;;;;;;1.00;68.07;101680.00;1788241;80;21119;-61
2022/03/13 11:35:22;;;;;;;7.62;4.20;;;;;;;1.00;67.69;101678.66;1788267;80;21107;-62
2022/03/13 11:37:55;;;;;;;9.55;4.83;;;;;;;0.99;67.38;101680.98;1788382;80;21107;-59
2022/03/13 11:40:34;;;;;;;9.93;4.62;;;;;;;0.96;67.09;101684.75;1788369;80;21574;-62
2022/03/13 11:43:19;;;;;;;9.35;4.25;;;;;;;0.92;66.93;101673.30;1788557;79;21087;-62
2022/03/13 11:45:57;;;;;;;12.80;4.22;;;;;;;0.91;66.69;101672.05;1788210;79;21633;-62